»·PEaware :: N172GC KASE-1V8

N172GC :: KASE-1V8

FLIGHT INFORMATION

Flight Status: Arrived
Operator: Privately registered:
United States
More flights under this callsign
Pilot: Luis F. (16087)
Aircraft: CESSNA 208 CARAVAN
(C208)
More flights by this aircraft type
Origin: KASE Aspen-Pitkin Co/Sardy
United States
Destination: 1V8 Leach
United States
More flights between these airports :: More routes between these airports
Route: DIRECT 1V8
File this flight plan on PilotEdge
Remarks: NEW ON PILOTEDGE
Altitude:
(Current/Filed)
13,500ft
Speed:
(Current/Filed)
115kts
Departed: 12-Oct-17 08:02 PM
Arrived: 12-Oct-17 08:45 PM
Distance/Time
Traveled:
95nm/0:43
Distance/Time
To Go:
Arrived

Flight Plot

Page will automatically refresh every two minutes.

Flight plan parsing failed; only flown route is shown


Map Options




Map Legend


Flown Route
Filed Route
Departure Airport
Arrival Airport
Navaid (VOR, NDB)
Fix

Horizontal Profiles

Position Reports

Time Latitude Longitude Heading Altitude Ground
Speed
12-Oct-17 19:48 39.221553 -106.866292 116 7756ft 0kts
12-Oct-17 19:49 39.221553 -106.866292 116 7756ft 0kts
12-Oct-17 19:50 39.221553 -106.866292 116 7756ft 0kts
12-Oct-17 19:51 39.221553 -106.866292 116 7756ft 0kts
12-Oct-17 19:52 39.221553 -106.866292 116 7756ft 0kts
12-Oct-17 19:53 39.221553 -106.866292 116 7756ft 0kts
12-Oct-17 19:54 39.221553 -106.866292 116 7756ft 0kts
12-Oct-17 19:55 39.221553 -106.866292 116 7756ft 0kts
12-Oct-17 19:56 39.221553 -106.866292 116 7756ft 0kts
12-Oct-17 19:57 39.221553 -106.866292 116 7756ft 0kts
12-Oct-17 19:58 39.221553 -106.866292 116 7756ft 0kts
12-Oct-17 19:59 39.221553 -106.866292 116 7756ft 0kts
12-Oct-17 20:00 39.221553 -106.866292 116 7756ft 0kts
12-Oct-17 20:01 39.220411 -106.866339 161 7765ft 7kts
12-Oct-17 20:02 39.218391 -106.865422 163 7780ft 12kts
12-Oct-17 20:03 39.215160 -106.863963 169 7803ft 10kts
12-Oct-17 20:04 39.214943 -106.864006 210 7804ft 0kts
12-Oct-17 20:05 39.214942 -106.864006 210 7804ft 0kts
12-Oct-17 20:06 39.226519 -106.870817 328 8050ft 104kts
12-Oct-17 20:07 39.252254 -106.890634 306 9260ft 112kts
12-Oct-17 20:08 39.261039 -106.923580 203 10430ft 106kts
12-Oct-17 20:09 39.234955 -106.909986 151 11656ft 100kts
12-Oct-17 20:10 39.210371 -106.890892 125 12671ft 110kts
12-Oct-17 20:11 39.204889 -106.851983 131 13660ft 110kts
12-Oct-17 20:12 39.170564 -106.834507 157 13844ft 136kts
12-Oct-17 20:13 39.140360 -106.815160 157 14861ft 118kts
12-Oct-17 20:14 39.111504 -106.798315 150 15635ft 128kts
12-Oct-17 20:15 39.074404 -106.779645 157 15676ft 152kts
12-Oct-17 20:16 39.034918 -106.757604 155 15674ft 156kts
12-Oct-17 20:17 38.994801 -106.734511 155 15673ft 158kts
12-Oct-17 20:18 38.954614 -106.711282 155 15673ft 159kts
12-Oct-17 20:19 38.912540 -106.686997 155 15673ft 166kts
12-Oct-17 20:20 38.870038 -106.662468 155 15674ft 173kts
12-Oct-17 20:21 38.825781 -106.636972 155 15673ft 175kts
12-Oct-17 20:22 38.781063 -106.611141 156 15737ft 177kts
12-Oct-17 20:23 38.736491 -106.585462 160 15782ft 174kts
12-Oct-17 20:24 38.692744 -106.560508 158 15783ft 173kts
12-Oct-17 20:25 38.648894 -106.535409 159 15782ft 172kts
12-Oct-17 20:26 38.605889 -106.511019 156 15778ft 161kts
12-Oct-17 20:27 38.566491 -106.488323 157 15780ft 152kts
12-Oct-17 20:28 38.528068 -106.466355 157 15781ft 150kts
12-Oct-17 20:29 38.489995 -106.444633 157 15781ft 150kts
12-Oct-17 20:30 38.451911 -106.422933 157 15781ft 150kts
12-Oct-17 20:31 38.413770 -106.401231 157 15781ft 150kts
12-Oct-17 20:32 38.375838 -106.379730 155 15915ft 150kts
12-Oct-17 20:33 38.337004 -106.357624 155 15917ft 156kts
12-Oct-17 20:34 38.308467 -106.319152 159 15653ft 167kts
12-Oct-17 20:36 38.262401 -106.310821 163 15304ft 167kts
12-Oct-17 20:37 38.219132 -106.290379 157 14899ft 166kts
12-Oct-17 20:38 38.176537 -106.266779 156 14482ft 169kts
12-Oct-17 20:39 38.132787 -106.242106 156 13963ft 174kts
12-Oct-17 20:40 38.088368 -106.217076 156 13460ft 174kts
12-Oct-17 20:41 38.044061 -106.192140 156 12971ft 174kts
12-Oct-17 20:42 37.999875 -106.167311 156 12495ft 174kts
12-Oct-17 20:43 37.957097 -106.143426 161 11979ft 164kts
12-Oct-17 20:44 37.915538 -106.161088 177 11389ft 162kts
12-Oct-17 20:45 37.882343 -106.125388 143 10823ft 161kts
12-Oct-17 20:46 37.846712 -106.096140 150 10172ft 127kts
12-Oct-17 20:47 37.820562 -106.081503 157 9024ft 108kts
12-Oct-17 20:48 37.798167 -106.062258 128 7844ft 90kts
12-Oct-17 20:49 37.784954 -106.038858 127 7601ft 92kts
12-Oct-17 20:50 37.779464 -106.029177 118 7597ft 12kts
12-Oct-17 20:51 37.778612 -106.029499 353 7598ft 5kts

Navigation Log

Ident Type
Flight plan parsing failed, navigation log unavailable